Norma, New Jersey
Current Conditions -  °F | °C
As of 7:54 AM on Friday 28 Nov 2014 (Local Time) from KMIV Reporting Station
Clear Clear  
Wind Chill: 25°   Ceiling: Unl
Heat Index: 33°   Visibility: 10mi
Dew Point: 24°   Wind: 9mph
Humidity: 70%   Direction: 280°W
Pressure: 30.22"   Gusts: NA
Location:  39.5°N, 75.09°W
Report Text: KMIV 281254Z AUTO 28008KT 10SM CLR 01/M04 A3022 RMK AO2 SLP233 T00061044
Loading
Personal Weather Stations






























Interactive Weather Map New forecast layout! Learn more

10-Day Weather Forecast

Advertisements
Track Severe Weather on mobile